sensor_id;sensor_type;location;lat;lon;timestamp;pressure;altitude;pressure_sealevel;temperature;humidity
85066;BME280;75401;52.588;13.224;2024-01-30T00:02:09;102653.88;;;4.63;68.21
85066;BME280;75401;52.588;13.224;2024-01-30T00:04:34;102635.50;;;4.60;68.65
85066;BME280;75401;52.588;13.224;2024-01-30T00:07:00;102638.13;;;4.60;68.58
85066;BME280;75401;52.588;13.224;2024-01-30T00:09:25;102658.53;;;4.58;67.92
85066;BME280;75401;52.588;13.224;2024-01-30T00:11:50;102651.50;;;4.57;68.25
85066;BME280;75401;52.588;13.224;2024-01-30T00:14:17;102643.63;;;4.55;68.44
85066;BME280;75401;52.588;13.224;2024-01-30T00:16:42;102651.63;;;4.54;68.51
85066;BME280;75401;52.588;13.224;2024-01-30T00:19:07;102654.38;;;4.52;68.84
85066;BME280;75401;52.588;13.224;2024-01-30T00:21:33;102646.56;;;4.49;69.02
85066;BME280;75401;52.588;13.224;2024-01-30T00:23:58;102643.03;;;4.49;68.69
85066;BME280;75401;52.588;13.224;2024-01-30T00:26:23;102644.03;;;4.46;68.85
85066;BME280;75401;52.588;13.224;2024-01-30T00:28:49;102643.22;;;4.44;69.18
85066;BME280;75401;52.588;13.224;2024-01-30T00:31:15;102650.31;;;4.43;68.84
85066;BME280;75401;52.588;13.224;2024-01-30T00:33:41;102625.34;;;4.29;69.20
85066;BME280;75401;52.588;13.224;2024-01-30T00:36:08;102644.28;;;4.40;69.02
85066;BME280;75401;52.588;13.224;2024-01-30T00:38:33;102637.31;;;4.37;68.94
85066;BME280;75401;52.588;13.224;2024-01-30T00:40:59;102632.09;;;4.36;69.40
85066;BME280;75401;52.588;13.224;2024-01-30T00:43:24;102613.41;;;4.19;68.94
85066;BME280;75401;52.588;13.224;2024-01-30T00:45:49;102613.34;;;4.20;69.43
85066;BME280;75401;52.588;13.224;2024-01-30T00:48:16;102635.88;;;4.30;69.04
85066;BME280;75401;52.588;13.224;2024-01-30T00:50:41;102634.13;;;4.29;69.42
85066;BME280;75401;52.588;13.224;2024-01-30T00:53:07;102630.81;;;4.24;69.74
85066;BME280;75401;52.588;13.224;2024-01-30T00:55:32;102639.56;;;4.26;69.31
85066;BME280;75401;52.588;13.224;2024-01-30T00:57:57;102636.97;;;4.25;69.33
85066;BME280;75401;52.588;13.224;2024-01-30T01:00:23;102631.88;;;4.20;69.54
85066;BME280;75401;52.588;13.224;2024-01-30T01:02:48;102638.84;;;4.23;69.44
85066;BME280;75401;52.588;13.224;2024-01-30T01:05:15;102637.09;;;4.22;69.60
85066;BME280;75401;52.588;13.224;2024-01-30T01:07:40;102644.25;;;4.20;69.39
85066;BME280;75401;52.588;13.224;2024-01-30T01:10:06;102636.38;;;4.18;69.31
85066;BME280;75401;52.588;13.224;2024-01-30T01:12:31;102652.31;;;4.17;69.56
85066;BME280;75401;52.588;13.224;2024-01-30T01:14:57;102644.53;;;4.14;69.67
85066;BME280;75401;52.588;13.224;2024-01-30T01:17:22;102649.00;;;4.12;69.71
85066;BME280;75401;52.588;13.224;2024-01-30T01:19:47;102643.69;;;4.12;69.92
85066;BME280;75401;52.588;13.224;2024-01-30T01:22:14;102652.63;;;4.09;69.90
85066;BME280;75401;52.588;13.224;2024-01-30T01:24:39;102643.91;;;4.07;69.80
85066;BME280;75401;52.588;13.224;2024-01-30T01:27:05;102645.75;;;4.05;69.80
85066;BME280;75401;52.588;13.224;2024-01-30T01:29:30;102644.03;;;4.04;70.17
85066;BME280;75401;52.588;13.224;2024-01-30T01:31:55;102641.44;;;4.03;69.81
85066;BME280;75401;52.588;13.224;2024-01-30T01:34:21;102642.34;;;4.02;69.71
85066;BME280;75401;52.588;13.224;2024-01-30T01:36:46;102589.94;;;3.68;70.07
85066;BME280;75401;52.588;13.224;2024-01-30T01:39:13;102638.06;;;3.99;70.19
85066;BME280;75401;52.588;13.224;2024-01-30T01:41:38;102637.19;;;3.99;70.30
85066;BME280;75401;52.588;13.224;2024-01-30T01:44:04;102633.75;;;3.97;70.43
85066;BME280;75401;52.588;13.224;2024-01-30T01:46:32;102628.53;;;3.95;70.14
85066;BME280;75401;52.588;13.224;2024-01-30T01:48:58;102638.25;;;3.95;70.09
85066;BME280;75401;52.588;13.224;2024-01-30T01:51:27;102635.59;;;3.95;70.20
85066;BME280;75401;52.588;13.224;2024-01-30T01:53:53;102633.88;;;3.94;70.43
85066;BME280;75401;52.588;13.224;2024-01-30T01:56:20;102629.72;;;3.88;69.95
85066;BME280;75401;52.588;13.224;2024-01-30T01:58:47;102635.72;;;3.92;70.14
85066;BME280;75401;52.588;13.224;2024-01-30T02:01:14;102633.94;;;3.92;70.58
85066;BME280;75401;52.588;13.224;2024-01-30T02:03:41;102638.38;;;3.92;70.32
85066;BME280;75401;52.588;13.224;2024-01-30T02:08:37;102639.22;;;3.92;70.31
85066;BME280;75401;52.588;13.224;2024-01-30T02:11:02;102640.09;;;3.93;70.04
85066;BME280;75401;52.588;13.224;2024-01-30T02:13:30;102636.59;;;3.92;70.09
85066;BME280;75401;52.588;13.224;2024-01-30T02:15:55;102630.38;;;3.93;70.33
85066;BME280;75401;52.588;13.224;2024-01-30T02:18:20;102630.38;;;3.93;70.04
85066;BME280;75401;52.588;13.224;2024-01-30T02:20:46;102637.47;;;3.93;70.26
85066;BME280;75401;52.588;13.224;2024-01-30T02:23:12;102634.00;;;3.91;70.39
85066;BME280;75401;52.588;13.224;2024-01-30T02:25:40;102634.06;;;3.89;70.23
85066;BME280;75401;52.588;13.224;2024-01-30T02:28:06;102642.69;;;3.94;70.25
85066;BME280;75401;52.588;13.224;2024-01-30T02:30:31;102640.09;;;3.93;70.28
85066;BME280;75401;52.588;13.224;2024-01-30T02:32:56;102642.75;;;3.93;70.50
85066;BME280;75401;52.588;13.224;2024-01-30T02:35:22;102642.75;;;3.93;70.15
85066;BME280;75401;52.588;13.224;2024-01-30T02:37:48;102643.63;;;3.93;70.35
85066;BME280;75401;52.588;13.224;2024-01-30T02:40:14;102638.38;;;3.92;70.30
85066;BME280;75401;52.588;13.224;2024-01-30T02:42:40;102628.66;;;3.92;70.07
85066;BME280;75401;52.588;13.224;2024-01-30T02:45:06;102634.00;;;3.91;70.56
85066;BME280;75401;52.588;13.224;2024-01-30T02:47:31;102624.47;;;3.87;70.46
85066;BME280;75401;52.588;13.224;2024-01-30T02:49:57;102633.16;;;3.90;70.14
85066;BME280;75401;52.588;13.224;2024-01-30T02:52:22;102631.41;;;3.89;70.22
85066;BME280;75401;52.588;13.224;2024-01-30T02:54:48;102625.22;;;3.90;69.93
85066;BME280;75401;52.588;13.224;2024-01-30T02:57:14;102622.69;;;3.87;70.53
85066;BME280;75401;52.588;13.224;2024-01-30T02:59:40;102614.81;;;3.86;70.24
85066;BME280;75401;52.588;13.224;2024-01-30T03:02:05;102620.94;;;3.86;70.21
85066;BME280;75401;52.588;13.224;2024-01-30T03:04:30;102620.16;;;3.84;70.73
85066;BME280;75401;52.588;13.224;2024-01-30T03:06:55;102617.50;;;3.84;70.51
85066;BME280;75401;52.588;13.224;2024-01-30T03:09:21;102614.19;;;3.79;70.51
85066;BME280;75401;52.588;13.224;2024-01-30T03:11:46;102616.03;;;3.77;70.94
85066;BME280;75401;52.588;13.224;2024-01-30T03:14:13;102615.16;;;3.76;70.75
85066;BME280;75401;52.588;13.224;2024-01-30T03:16:38;102614.31;;;3.76;70.37
85066;BME280;75401;52.588;13.224;2024-01-30T03:19:06;102612.59;;;3.75;70.99
85066;BME280;75401;52.588;13.224;2024-01-30T03:21:31;102606.44;;;3.74;71.20
85066;BME280;75401;52.588;13.224;2024-01-30T03:23:56;102598.69;;;3.70;71.05
85066;BME280;75401;52.588;13.224;2024-01-30T03:26:22;102602.13;;;3.72;70.75
85066;BME280;75401;52.588;13.224;2024-01-30T03:28:47;102596.94;;;3.69;71.15
85066;BME280;75401;52.588;13.224;2024-01-30T03:31:15;102601.38;;;3.68;71.41
85066;BME280;75401;52.588;13.224;2024-01-30T03:33:41;102600.66;;;3.65;71.14
85066;BME280;75401;52.588;13.224;2024-01-30T03:36:07;102591.91;;;3.63;71.38
85066;BME280;75401;52.588;13.224;2024-01-30T03:38:32;102598.16;;;3.60;71.19
85066;BME280;75401;52.588;13.224;2024-01-30T03:40:58;102602.63;;;3.60;71.28
85066;BME280;75401;52.588;13.224;2024-01-30T03:43:23;102599.13;;;3.59;71.21
85066;BME280;75401;52.588;13.224;2024-01-30T03:45:49;102602.63;;;3.60;71.22
85066;BME280;75401;52.588;13.224;2024-01-30T03:48:15;102599.16;;;3.58;71.33
85066;BME280;75401;52.588;13.224;2024-01-30T03:50:41;102608.03;;;3.57;71.21
85066;BME280;75401;52.588;13.224;2024-01-30T03:53:06;102605.44;;;3.55;71.37
85066;BME280;75401;52.588;13.224;2024-01-30T03:55:31;102606.31;;;3.56;71.64
85066;BME280;75401;52.588;13.224;2024-01-30T03:57:56;102604.53;;;3.56;71.32
85066;BME280;75401;52.588;13.224;2024-01-30T04:00:22;102601.00;;;3.56;71.41
85066;BME280;75401;52.588;13.224;2024-01-30T04:02:47;102601.94;;;3.55;71.58
85066;BME280;75401;52.588;13.224;2024-01-30T04:05:14;102611.66;;;3.54;71.79
85066;BME280;75401;52.588;13.224;2024-01-30T04:07:39;102607.34;;;3.52;71.66
85066;BME280;75401;52.588;13.224;2024-01-30T04:10:05;102611.78;;;3.51;71.56
85066;BME280;75401;52.588;13.224;2024-01-30T04:12:31;102608.25;;;3.51;71.92
85066;BME280;75401;52.588;13.224;2024-01-30T04:14:57;102601.19;;;3.51;71.66
85066;BME280;75401;52.588;13.224;2024-01-30T04:17:22;102605.59;;;3.52;71.81
85066;BME280;75401;52.588;13.224;2024-01-30T04:19:47;102604.72;;;3.52;71.56
85066;BME280;75401;52.588;13.224;2024-01-30T04:22:14;102602.19;;;3.49;71.62
85066;BME280;75401;52.588;13.224;2024-01-30T04:24:39;102600.44;;;3.48;71.83
85066;BME280;75401;52.588;13.224;2024-01-30T04:27:05;102607.53;;;3.47;71.76
85066;BME280;75401;52.588;13.224;2024-01-30T04:29:30;102601.44;;;3.45;71.85
85066;BME280;75401;52.588;13.224;2024-01-30T04:31:55;102608.47;;;3.46;71.89
85066;BME280;75401;52.588;13.224;2024-01-30T04:34:21;102603.28;;;3.43;71.98
85066;BME280;75401;52.588;13.224;2024-01-30T04:36:46;102603.28;;;3.43;71.85
85066;BME280;75401;52.588;13.224;2024-01-30T04:39:12;102601.50;;;3.44;72.09
85066;BME280;75401;52.588;13.224;2024-01-30T04:41:38;102600.63;;;3.43;71.83
85066;BME280;75401;52.588;13.224;2024-01-30T04:44:03;102590.91;;;3.44;71.84
85066;BME280;75401;52.588;13.224;2024-01-30T04:46:29;102601.50;;;3.44;71.88
85066;BME280;75401;52.588;13.224;2024-01-30T04:48:54;102597.13;;;3.43;72.01
85066;BME280;75401;52.588;13.224;2024-01-30T04:51:19;102595.41;;;3.42;71.95
85066;BME280;75401;52.588;13.224;2024-01-30T04:53:45;102598.97;;;3.41;72.04
85066;BME280;75401;52.588;13.224;2024-01-30T04:56:11;102594.56;;;3.41;72.07
85066;BME280;75401;52.588;13.224;2024-01-30T04:58:37;102592.81;;;3.40;72.21
85066;BME280;75401;52.588;13.224;2024-01-30T05:01:02;102597.19;;;3.41;71.78
85066;BME280;75401;52.588;13.224;2024-01-30T05:03:28;102586.81;;;3.37;72.34
85066;BME280;75401;52.588;13.224;2024-01-30T05:05:53;102586.63;;;3.41;72.29
85066;BME280;75401;52.588;13.224;2024-01-30T05:08:18;102585.75;;;3.41;72.55
85066;BME280;75401;52.588;13.224;2024-01-30T05:10:44;102590.16;;;3.40;72.06
85066;BME280;75401;52.588;13.224;2024-01-30T05:13:10;102584.84;;;3.42;72.28
85066;BME280;75401;52.588;13.224;2024-01-30T05:15:36;102587.41;;;3.43;71.86
85066;BME280;75401;52.588;13.224;2024-01-30T05:18:01;102589.19;;;3.43;72.17
85066;BME280;75401;52.588;13.224;2024-01-30T05:20:26;102587.53;;;3.40;72.07
85066;BME280;75401;52.588;13.224;2024-01-30T05:22:52;102590.25;;;3.39;71.92
85066;BME280;75401;52.588;13.224;2024-01-30T05:25:17;102592.03;;;3.38;72.26
85066;BME280;75401;52.588;13.224;2024-01-30T05:27:43;102591.16;;;3.38;72.09
85066;BME280;75401;52.588;13.224;2024-01-30T05:30:10;102589.44;;;3.37;72.38
85066;BME280;75401;52.588;13.224;2024-01-30T05:32:36;102583.28;;;3.36;72.38
85066;BME280;75401;52.588;13.224;2024-01-30T05:35:01;102592.09;;;3.37;72.30
85066;BME280;75401;52.588;13.224;2024-01-30T05:37:27;102585.19;;;3.33;72.75
85066;BME280;75401;52.588;13.224;2024-01-30T05:39:52;102588.91;;;3.27;72.86
85066;BME280;75401;52.588;13.224;2024-01-30T05:42:18;102586.41;;;3.24;72.98
85066;BME280;75401;52.588;13.224;2024-01-30T05:44:43;102593.47;;;3.24;73.09
85066;BME280;75401;52.588;13.224;2024-01-30T05:47:10;102582.03;;;3.23;73.18
85066;BME280;75401;52.588;13.224;2024-01-30T05:49:35;102581.16;;;3.23;72.96
85066;BME280;75401;52.588;13.224;2024-01-30T05:52:02;102579.47;;;3.22;73.06
85066;BME280;75401;52.588;13.224;2024-01-30T05:54:28;102568.06;;;3.19;72.96
85066;BME280;75401;52.588;13.224;2024-01-30T05:56:53;102576.75;;;3.23;72.99
85066;BME280;75401;52.588;13.224;2024-01-30T05:59:19;102575.88;;;3.23;73.01
85066;BME280;75401;52.588;13.224;2024-01-30T06:01:46;102582.03;;;3.23;73.04
85066;BME280;75401;52.588;13.224;2024-01-30T06:04:12;102573.25;;;3.23;72.87
85066;BME280;75401;52.588;13.224;2024-01-30T06:06:38;102572.31;;;3.24;72.96
85066;BME280;75401;52.588;13.224;2024-01-30T06:09:04;102574.03;;;3.25;73.08
85066;BME280;75401;52.588;13.224;2024-01-30T06:11:29;102575.78;;;3.26;73.14
85066;BME280;75401;52.588;13.224;2024-01-30T06:13:55;102568.75;;;3.25;73.23
85066;BME280;75401;52.588;13.224;2024-01-30T06:16:21;102573.13;;;3.26;73.12
85066;BME280;75401;52.588;13.224;2024-01-30T06:18:46;102571.47;;;3.23;73.16
85066;BME280;75401;52.588;13.224;2024-01-30T06:21:13;102567.09;;;3.22;73.34
85066;BME280;75401;52.588;13.224;2024-01-30T06:23:39;102573.25;;;3.23;73.29
85066;BME280;75401;52.588;13.224;2024-01-30T06:26:06;102570.59;;;3.23;73.31
85066;BME280;75401;52.588;13.224;2024-01-30T06:28:31;102565.41;;;3.19;73.35
85066;BME280;75401;52.588;13.224;2024-01-30T06:30:57;102566.25;;;3.22;73.45
85066;BME280;75401;52.588;13.224;2024-01-30T06:33:22;102573.25;;;3.23;73.23
85066;BME280;75401;52.588;13.224;2024-01-30T06:35:48;102572.31;;;3.24;73.21
85066;BME280;75401;52.588;13.224;2024-01-30T06:38:15;102568.81;;;3.23;73.32
85066;BME280;75401;52.588;13.224;2024-01-30T06:40:40;102569.72;;;3.22;73.62
85066;BME280;75401;52.588;13.224;2024-01-30T06:43:05;102560.13;;;3.19;73.38
85066;BME280;75401;52.588;13.224;2024-01-30T06:45:30;102560.28;;;3.16;73.28
85066;BME280;75401;52.588;13.224;2024-01-30T06:47:56;102573.13;;;3.26;73.28
85066;BME280;75401;52.588;13.224;2024-01-30T06:50:21;102570.47;;;3.26;73.50
85066;BME280;75401;52.588;13.224;2024-01-30T06:52:46;102566.19;;;3.23;73.64
85066;BME280;75401;52.588;13.224;2024-01-30T06:55:13;102568.81;;;3.23;73.73
85066;BME280;75401;52.588;13.224;2024-01-30T06:57:38;102541.94;;;3.12;73.56
85066;BME280;75401;52.588;13.224;2024-01-30T07:00:05;102571.38;;;3.25;73.68
85066;BME280;75401;52.588;13.224;2024-01-30T07:02:31;102568.75;;;3.25;73.66
85066;BME280;75401;52.588;13.224;2024-01-30T07:04:56;102577.50;;;3.27;73.72
85066;BME280;75401;52.588;13.224;2024-01-30T07:07:22;102573.91;;;3.28;73.69
85066;BME280;75401;52.588;13.224;2024-01-30T07:09:47;102571.25;;;3.29;73.68
85066;BME280;75401;52.588;13.224;2024-01-30T07:12:13;102570.38;;;3.29;73.81
85066;BME280;75401;52.588;13.224;2024-01-30T07:14:39;102561.50;;;3.30;73.51
85066;BME280;75401;52.588;13.224;2024-01-30T07:17:04;102563.19;;;3.32;73.96
85066;BME280;75401;52.588;13.224;2024-01-30T07:19:29;102570.19;;;3.33;73.55
85066;BME280;75401;52.588;13.224;2024-01-30T07:21:55;102564.88;;;3.33;74.01
85066;BME280;75401;52.588;13.224;2024-01-30T07:24:20;102557.63;;;3.38;74.17
85066;BME280;75401;52.588;13.224;2024-01-30T07:26:45;102552.34;;;3.38;73.91
85066;BME280;75401;52.588;13.224;2024-01-30T07:29:12;102546.94;;;3.41;74.03
85066;BME280;75401;52.588;13.224;2024-01-30T07:31:37;102559.19;;;3.44;74.29
85066;BME280;75401;52.588;13.224;2024-01-30T07:34:03;102555.47;;;3.48;74.27
85066;BME280;75401;52.588;13.224;2024-01-30T07:36:28;102558.88;;;3.51;74.30
85066;BME280;75401;52.588;13.224;2024-01-30T07:38:53;102555.25;;;3.54;73.95
85066;BME280;75401;52.588;13.224;2024-01-30T07:41:19;102552.47;;;3.57;73.85
85066;BME280;75401;52.588;13.224;2024-01-30T07:43:44;102560.22;;;3.61;73.99
85066;BME280;75401;52.588;13.224;2024-01-30T07:46:11;102555.69;;;3.65;73.75
85066;BME280;75401;52.588;13.224;2024-01-30T07:48:36;102536.66;;;3.55;73.82
85066;BME280;75401;52.588;13.224;2024-01-30T07:51:02;102553.59;;;3.73;73.73
85066;BME280;75401;52.588;13.224;2024-01-30T07:53:27;102547.22;;;3.77;73.64
85066;BME280;75401;52.588;13.224;2024-01-30T07:55:53;102557.63;;;3.81;73.80
85066;BME280;75401;52.588;13.224;2024-01-30T07:58:18;102553.97;;;3.84;73.55
85066;BME280;75401;52.588;13.224;2024-01-30T08:00:44;102561.56;;;3.93;73.06
85066;BME280;75401;52.588;13.224;2024-01-30T08:03:11;102561.34;;;3.98;73.39
85066;BME280;75401;52.588;13.224;2024-01-30T08:05:36;102558.50;;;4.02;73.46
85066;BME280;75401;52.588;13.224;2024-01-30T08:08:02;102554.88;;;4.05;73.49
85066;BME280;75401;52.588;13.224;2024-01-30T08:10:27;102551.09;;;4.10;73.14
85066;BME280;75401;52.588;13.224;2024-01-30T08:12:52;102562.34;;;4.15;73.24
85066;BME280;75401;52.588;13.224;2024-01-30T08:15:18;102553.28;;;4.21;73.07
85066;BME280;75401;52.588;13.224;2024-01-30T08:17:43;102554.06;;;4.23;72.81
85066;BME280;75401;52.588;13.224;2024-01-30T08:20:10;102558.25;;;4.28;72.78
85066;BME280;75401;52.588;13.224;2024-01-30T08:22:38;102556.28;;;4.33;72.93
85066;BME280;75401;52.588;13.224;2024-01-30T08:25:04;102558.63;;;4.39;72.85
85066;BME280;75401;52.588;13.224;2024-01-30T08:27:29;102555.81;;;4.44;72.61
85066;BME280;75401;52.588;13.224;2024-01-30T08:29:56;102549.38;;;4.50;72.58
85066;BME280;75401;52.588;13.224;2024-01-30T08:32:21;102502.63;;;4.28;72.69
85066;BME280;75401;52.588;13.224;2024-01-30T08:34:46;102536.56;;;4.59;72.44
85066;BME280;75401;52.588;13.224;2024-01-30T08:37:14;102545.09;;;4.66;72.29
85066;BME280;75401;52.588;13.224;2024-01-30T08:39:39;102542.03;;;4.75;72.27
85066;BME280;75401;52.588;13.224;2024-01-30T08:42:05;102545.22;;;4.83;72.04
85066;BME280;75401;52.588;13.224;2024-01-30T08:44:30;102537.03;;;4.87;72.01
85066;BME280;75401;52.588;13.224;2024-01-30T08:46:55;102538.38;;;4.96;71.46
85066;BME280;75401;52.588;13.224;2024-01-30T08:49:21;102542.25;;;5.07;71.34
85066;BME280;75401;52.588;13.224;2024-01-30T08:51:46;102544.41;;;5.18;70.85
85066;BME280;75401;52.588;13.224;2024-01-30T08:54:13;102534.22;;;5.28;70.72
85066;BME280;75401;52.588;13.224;2024-01-30T08:56:38;102534.63;;;5.37;70.22
85066;BME280;75401;52.588;13.224;2024-01-30T08:59:03;102537.63;;;5.48;69.94
85066;BME280;75401;52.588;13.224;2024-01-30T09:01:29;102527.50;;;5.56;69.55
85066;BME280;75401;52.588;13.224;2024-01-30T09:03:54;102530.47;;;5.67;69.62
85066;BME280;75401;52.588;13.224;2024-01-30T09:06:21;102530.94;;;5.76;69.55
85066;BME280;75401;52.588;13.224;2024-01-30T09:08:46;102526.88;;;5.87;68.91
85066;BME280;75401;52.588;13.224;2024-01-30T09:11:14;102525.47;;;5.97;68.02
85066;BME280;75401;52.588;13.224;2024-01-30T09:13:40;102531.06;;;6.08;68.03
85066;BME280;75401;52.588;13.224;2024-01-30T09:16:06;102532.50;;;6.15;66.59
85066;BME280;75401;52.588;13.224;2024-01-30T09:18:32;102526.44;;;6.29;66.92
85066;BME280;75401;52.588;13.224;2024-01-30T09:20:58;102526.28;;;6.32;66.75
85066;BME280;75401;52.588;13.224;2024-01-30T09:23:23;102537.69;;;6.51;66.67
85066;BME280;75401;52.588;13.224;2024-01-30T09:25:48;102526.81;;;6.56;65.78
85066;BME280;75401;52.588;13.224;2024-01-30T09:28:16;102526.28;;;6.65;65.46
85066;BME280;75401;52.588;13.224;2024-01-30T09:30:42;102532.00;;;6.74;65.52
85066;BME280;75401;52.588;13.224;2024-01-30T09:33:07;102537.56;;;6.85;65.42
85066;BME280;75401;52.588;13.224;2024-01-30T09:35:33;102524.56;;;6.96;64.70
85066;BME280;75401;52.588;13.224;2024-01-30T09:37:59;102527.66;;;7.05;64.73
85066;BME280;75401;52.588;13.224;2024-01-30T09:40:25;102533.41;;;7.13;64.41
85066;BME280;75401;52.588;13.224;2024-01-30T09:42:51;102525.59;;;7.25;64.08
85066;BME280;75401;52.588;13.224;2024-01-30T09:45:18;102523.44;;;7.32;63.98
85066;BME280;75401;52.588;13.224;2024-01-30T09:47:45;102526.53;;;7.40;64.11
85066;BME280;75401;52.588;13.224;2024-01-30T09:50:12;102512.69;;;7.49;63.77
85066;BME280;75401;52.588;13.224;2024-01-30T09:52:38;102514.06;;;7.56;62.63
85066;BME280;75401;52.588;13.224;2024-01-30T09:55:04;102496.03;;;7.45;62.31
85066;BME280;75401;52.588;13.224;2024-01-30T09:57:30;102512.22;;;7.72;61.94
85066;BME280;75401;52.588;13.224;2024-01-30T09:59:55;102516.25;;;7.79;62.27
85066;BME280;75401;52.588;13.224;2024-01-30T10:02:22;102503.25;;;7.89;61.36
85066;BME280;75401;52.588;13.224;2024-01-30T10:04:48;102504.47;;;7.97;61.50
85066;BME280;75401;52.588;13.224;2024-01-30T10:07:13;102504.22;;;8.02;61.73
85066;BME280;75401;52.588;13.224;2024-01-30T10:09:39;102498.44;;;8.09;61.26
85066;BME280;75401;52.588;13.224;2024-01-30T10:12:06;102501.69;;;8.14;60.33
85066;BME280;75401;52.588;13.224;2024-01-30T10:14:31;102498.63;;;8.20;60.36
85066;BME280;75401;52.588;13.224;2024-01-30T10:16:57;102504.53;;;8.25;60.64
85066;BME280;75401;52.588;13.224;2024-01-30T10:19:24;102504.22;;;8.32;59.58
85066;BME280;75401;52.588;13.224;2024-01-30T10:21:49;102499.16;;;8.41;60.07
85066;BME280;75401;52.588;13.224;2024-01-30T10:24:15;102504.03;;;8.49;58.28
85066;BME280;75401;52.588;13.224;2024-01-30T10:26:40;102500.88;;;8.56;57.94
85066;BME280;75401;52.588;13.224;2024-01-30T10:29:08;102486.88;;;8.67;57.17
85066;BME280;75401;52.588;13.224;2024-01-30T10:31:33;102495.53;;;8.84;58.85
85066;BME280;75401;52.588;13.224;2024-01-30T10:33:59;102496.97;;;8.90;57.42
85066;BME280;75401;52.588;13.224;2024-01-30T10:36:28;102497.22;;;9.00;57.35
85066;BME280;75401;52.588;13.224;2024-01-30T10:38:55;102487.03;;;9.06;56.79
85066;BME280;75401;52.588;13.224;2024-01-30T10:41:26;102483.59;;;9.04;55.18
85066;BME280;75401;52.588;13.224;2024-01-30T10:43:58;102489.66;;;9.20;55.00
85066;BME280;75401;52.588;13.224;2024-01-30T10:46:30;102485.72;;;9.26;55.89
85066;BME280;75401;52.588;13.224;2024-01-30T10:48:57;102490.47;;;9.35;55.84
85066;BME280;75401;52.588;13.224;2024-01-30T10:51:23;102480.78;;;9.46;55.76
85066;BME280;75401;52.588;13.224;2024-01-30T10:53:50;102479.03;;;9.60;54.81
85066;BME280;75401;52.588;13.224;2024-01-30T10:56:16;102483.09;;;9.65;55.40
85066;BME280;75401;52.588;13.224;2024-01-30T10:58:41;102483.66;;;9.70;54.14
85066;BME280;75401;52.588;13.224;2024-01-30T11:01:07;102493.50;;;9.82;54.00
85066;BME280;75401;52.588;13.224;2024-01-30T11:03:34;102479.41;;;9.93;54.71
85066;BME280;75401;52.588;13.224;2024-01-30T11:06:00;102484.09;;;9.89;54.03
85066;BME280;75401;52.588;13.224;2024-01-30T11:08:25;102439.09;;;9.71;53.80
85066;BME280;75401;52.588;13.224;2024-01-30T11:10:55;102482.84;;;10.07;53.51
85066;BME280;75401;52.588;13.224;2024-01-30T11:13:20;102472.72;;;10.25;53.15
85066;BME280;75401;52.588;13.224;2024-01-30T11:15:47;102474.66;;;10.36;54.12
85066;BME280;75401;52.588;13.224;2024-01-30T11:18:22;102429.41;;;10.20;53.57
85066;BME280;75401;52.588;13.224;2024-01-30T11:20:48;102481.28;;;10.55;52.81
85066;BME280;75401;52.588;13.224;2024-01-30T11:23:14;102481.41;;;10.54;52.38
85066;BME280;75401;52.588;13.224;2024-01-30T11:25:39;102471.13;;;10.48;53.87
85066;BME280;75401;52.588;13.224;2024-01-30T11:28:13;102463.22;;;10.46;53.13
85066;BME280;75401;52.588;13.224;2024-01-30T11:30:38;102464.69;;;10.50;53.58
85066;BME280;75401;52.588;13.224;2024-01-30T11:33:05;102474.25;;;10.42;53.80
85066;BME280;75401;52.588;13.224;2024-01-30T11:35:32;102474.03;;;10.45;53.15
85066;BME280;75401;52.588;13.224;2024-01-30T11:37:58;102468.69;;;10.45;53.90
85066;BME280;75401;52.588;13.224;2024-01-30T11:40:25;102468.78;;;10.43;52.73
85066;BME280;75401;52.588;13.224;2024-01-30T11:42:51;102473.25;;;10.43;52.41
85066;BME280;75401;52.588;13.224;2024-01-30T11:45:18;102464.94;;;10.47;54.49
85066;BME280;75401;52.588;13.224;2024-01-30T11:47:43;102467.16;;;10.53;53.72
85066;BME280;75401;52.588;13.224;2024-01-30T11:50:09;102465.53;;;10.63;52.87
85066;BME280;75401;52.588;13.224;2024-01-30T11:52:35;102461.78;;;10.66;53.70
85066;BME280;75401;52.588;13.224;2024-01-30T11:55:00;102461.78;;;10.66;52.61
85066;BME280;75401;52.588;13.224;2024-01-30T11:57:26;102463.91;;;10.73;53.26
85066;BME280;75401;52.588;13.224;2024-01-30T11:59:53;102454.06;;;10.74;53.55
85066;BME280;75401;52.588;13.224;2024-01-30T12:02:19;102453.44;;;10.70;52.88
85066;BME280;75401;52.588;13.224;2024-01-30T12:04:45;102441.03;;;10.69;52.69
85066;BME280;75401;52.588;13.224;2024-01-30T12:07:10;102408.91;;;10.69;51.58
85066;BME280;75401;52.588;13.224;2024-01-30T12:09:36;102433.31;;;11.01;52.74
85066;BME280;75401;52.588;13.224;2024-01-30T12:12:01;102430.41;;;10.81;51.82
85066;BME280;75401;52.588;13.224;2024-01-30T12:14:27;102439.09;;;10.71;51.60
85066;BME280;75401;52.588;13.224;2024-01-30T12:16:52;102434.94;;;10.67;52.07
85066;BME280;75401;52.588;13.224;2024-01-30T12:19:22;102427.19;;;10.76;52.86
85066;BME280;75401;52.588;13.224;2024-01-30T12:21:53;102425.78;;;10.83;52.49
85066;BME280;75401;52.588;13.224;2024-01-30T12:24:19;102417.22;;;10.78;51.29
85066;BME280;75401;52.588;13.224;2024-01-30T12:26:44;102413.88;;;10.87;51.83
85066;BME280;75401;52.588;13.224;2024-01-30T12:29:09;102399.53;;;10.88;51.85
85066;BME280;75401;52.588;13.224;2024-01-30T12:31:35;102405.97;;;10.85;51.91
85066;BME280;75401;52.588;13.224;2024-01-30T12:34:00;102395.91;;;10.76;51.89
85066;BME280;75401;52.588;13.224;2024-01-30T12:36:28;102391.94;;;10.82;51.39
85066;BME280;75401;52.588;13.224;2024-01-30T12:38:54;102395.81;;;10.78;52.89
85066;BME280;75401;52.588;13.224;2024-01-30T12:41:20;102391.97;;;10.69;51.82
85066;BME280;75401;52.588;13.224;2024-01-30T12:43:45;102398.28;;;10.81;51.93